sensor_id;sensor_type;location;lat;lon;timestamp;P1;durP1;ratioP1;P2;durP2;ratioP2
10550;SDS011;5324;50.684;3.862;2022-12-31T00:00:37;0.90;;;0.90;;
10550;SDS011;5324;50.684;3.862;2022-12-31T00:03:04;1.40;;;0.77;;
10550;SDS011;5324;50.684;3.862;2022-12-31T00:05:31;0.70;;;0.70;;
10550;SDS011;5324;50.684;3.862;2022-12-31T00:07:57;0.70;;;0.70;;
10550;SDS011;5324;50.684;3.862;2022-12-31T00:10:23;0.70;;;0.70;;
10550;SDS011;5324;50.684;3.862;2022-12-31T00:12:49;1.03;;;0.80;;
10550;SDS011;5324;50.684;3.862;2022-12-31T00:15:16;1.00;;;0.90;;
10550;SDS011;5324;50.684;3.862;2022-12-31T00:17:42;0.60;;;0.60;;
10550;SDS011;5324;50.684;3.862;2022-12-31T00:20:08;0.80;;;0.80;;
10550;SDS011;5324;50.684;3.862;2022-12-31T00:22:34;0.60;;;0.60;;
10550;SDS011;5324;50.684;3.862;2022-12-31T00:25:00;0.70;;;0.70;;
10550;SDS011;5324;50.684;3.862;2022-12-31T00:27:29;0.70;;;0.70;;
10550;SDS011;5324;50.684;3.862;2022-12-31T00:29:55;0.60;;;0.60;;
10550;SDS011;5324;50.684;3.862;2022-12-31T00:32:21;0.63;;;0.63;;
10550;SDS011;5324;50.684;3.862;2022-12-31T00:34:47;0.93;;;0.80;;
10550;SDS011;5324;50.684;3.862;2022-12-31T00:37:14;0.63;;;0.63;;
10550;SDS011;5324;50.684;3.862;2022-12-31T00:39:40;0.60;;;0.53;;
10550;SDS011;5324;50.684;3.862;2022-12-31T00:42:06;0.60;;;0.60;;
10550;SDS011;5324;50.684;3.862;2022-12-31T00:44:32;0.80;;;0.80;;
10550;SDS011;5324;50.684;3.862;2022-12-31T00:46:58;0.60;;;0.60;;
10550;SDS011;5324;50.684;3.862;2022-12-31T00:49:24;0.43;;;0.43;;
10550;SDS011;5324;50.684;3.862;2022-12-31T00:51:50;0.50;;;0.50;;
10550;SDS011;5324;50.684;3.862;2022-12-31T00:54:16;0.67;;;0.67;;
10550;SDS011;5324;50.684;3.862;2022-12-31T00:56:42;0.73;;;0.70;;
10550;SDS011;5324;50.684;3.862;2022-12-31T00:59:09;0.60;;;0.60;;
10550;SDS011;5324;50.684;3.862;2022-12-31T01:01:36;0.83;;;0.53;;
10550;SDS011;5324;50.684;3.862;2022-12-31T01:04:04;0.60;;;0.60;;
10550;SDS011;5324;50.684;3.862;2022-12-31T01:06:30;0.60;;;0.60;;
10550;SDS011;5324;50.684;3.862;2022-12-31T01:08:56;1.27;;;0.80;;
10550;SDS011;5324;50.684;3.862;2022-12-31T01:11:23;0.60;;;0.60;;
10550;SDS011;5324;50.684;3.862;2022-12-31T01:13:54;0.60;;;0.60;;
10550;SDS011;5324;50.684;3.862;2022-12-31T01:16:26;0.63;;;0.63;;
10550;SDS011;5324;50.684;3.862;2022-12-31T01:18:52;0.50;;;0.50;;
10550;SDS011;5324;50.684;3.862;2022-12-31T01:21:19;0.50;;;0.50;;
10550;SDS011;5324;50.684;3.862;2022-12-31T01:23:45;0.50;;;0.50;;
10550;SDS011;5324;50.684;3.862;2022-12-31T01:26:12;1.03;;;0.60;;
10550;SDS011;5324;50.684;3.862;2022-12-31T01:28:38;0.90;;;0.47;;
10550;SDS011;5324;50.684;3.862;2022-12-31T01:31:05;1.23;;;0.40;;
10550;SDS011;5324;50.684;3.862;2022-12-31T01:33:32;0.60;;;0.60;;
10550;SDS011;5324;50.684;3.862;2022-12-31T01:36:02;0.90;;;0.60;;
10550;SDS011;5324;50.684;3.862;2022-12-31T01:38:28;0.57;;;0.57;;
10550;SDS011;5324;50.684;3.862;2022-12-31T01:40:54;0.57;;;0.57;;
10550;SDS011;5324;50.684;3.862;2022-12-31T01:43:20;0.33;;;0.33;;
10550;SDS011;5324;50.684;3.862;2022-12-31T01:45:48;0.63;;;0.60;;
10550;SDS011;5324;50.684;3.862;2022-12-31T01:48:16;0.57;;;0.57;;
10550;SDS011;5324;50.684;3.862;2022-12-31T01:50:44;0.77;;;0.50;;
10550;SDS011;5324;50.684;3.862;2022-12-31T01:53:11;0.83;;;0.80;;
10550;SDS011;5324;50.684;3.862;2022-12-31T01:55:43;0.70;;;0.60;;
10550;SDS011;5324;50.684;3.862;2022-12-31T01:58:13;0.77;;;0.70;;
10550;SDS011;5324;50.684;3.862;2022-12-31T02:00:40;0.60;;;0.60;;
10550;SDS011;5324;50.684;3.862;2022-12-31T02:03:07;0.63;;;0.50;;
10550;SDS011;5324;50.684;3.862;2022-12-31T02:07:59;2.83;;;0.70;;
10550;SDS011;5324;50.684;3.862;2022-12-31T02:10:25;1.43;;;0.83;;
10550;SDS011;5324;50.684;3.862;2022-12-31T02:12:51;3.50;;;0.87;;
10550;SDS011;5324;50.684;3.862;2022-12-31T02:15:18;0.90;;;0.60;;
10550;SDS011;5324;50.684;3.862;2022-12-31T02:17:49;1.47;;;0.83;;
10550;SDS011;5324;50.684;3.862;2022-12-31T02:23:06;0.90;;;0.67;;
10550;SDS011;5324;50.684;3.862;2022-12-31T02:28:30;1.77;;;0.83;;
10550;SDS011;5324;50.684;3.862;2022-12-31T02:31:00;1.37;;;0.80;;
10550;SDS011;5324;50.684;3.862;2022-12-31T02:33:32;1.33;;;0.80;;
10550;SDS011;5324;50.684;3.862;2022-12-31T02:36:10;2.43;;;0.80;;
10550;SDS011;5324;50.684;3.862;2022-12-31T02:38:44;1.83;;;1.00;;
10550;SDS011;5324;50.684;3.862;2022-12-31T02:41:15;1.80;;;0.97;;
10550;SDS011;5324;50.684;3.862;2022-12-31T02:44:00;1.13;;;0.67;;
10550;SDS011;5324;50.684;3.862;2022-12-31T02:46:30;0.90;;;0.70;;
10550;SDS011;5324;50.684;3.862;2022-12-31T02:49:09;2.20;;;1.17;;
10550;SDS011;5324;50.684;3.862;2022-12-31T02:51:43;2.20;;;0.93;;
10550;SDS011;5324;50.684;3.862;2022-12-31T02:54:12;1.83;;;1.00;;
10550;SDS011;5324;50.684;3.862;2022-12-31T02:56:55;1.23;;;0.90;;
10550;SDS011;5324;50.684;3.862;2022-12-31T02:59:28;2.63;;;0.90;;
10550;SDS011;5324;50.684;3.862;2022-12-31T03:02:15;3.40;;;1.00;;
10550;SDS011;5324;50.684;3.862;2022-12-31T03:04:53;0.93;;;0.90;;
10550;SDS011;5324;50.684;3.862;2022-12-31T03:07:20;2.73;;;0.83;;
10550;SDS011;5324;50.684;3.862;2022-12-31T03:09:47;1.93;;;1.10;;
10550;SDS011;5324;50.684;3.862;2022-12-31T03:12:13;2.20;;;1.00;;
10550;SDS011;5324;50.684;3.862;2022-12-31T03:14:58;3.63;;;1.00;;
10550;SDS011;5324;50.684;3.862;2022-12-31T03:17:25;1.67;;;0.63;;
10550;SDS011;5324;50.684;3.862;2022-12-31T03:19:51;1.40;;;0.93;;
10550;SDS011;5324;50.684;3.862;2022-12-31T03:22:36;3.17;;;0.90;;
10550;SDS011;5324;50.684;3.862;2022-12-31T03:25:08;2.57;;;1.10;;
10550;SDS011;5324;50.684;3.862;2022-12-31T03:27:53;0.80;;;0.50;;
10550;SDS011;5324;50.684;3.862;2022-12-31T03:30:19;0.90;;;0.63;;
10550;SDS011;5324;50.684;3.862;2022-12-31T03:32:46;1.73;;;0.77;;
10550;SDS011;5324;50.684;3.862;2022-12-31T03:35:12;1.20;;;0.83;;
10550;SDS011;5324;50.684;3.862;2022-12-31T03:37:39;1.60;;;0.70;;
10550;SDS011;5324;50.684;3.862;2022-12-31T03:40:06;2.40;;;0.93;;
10550;SDS011;5324;50.684;3.862;2022-12-31T03:42:33;1.37;;;0.67;;
10550;SDS011;5324;50.684;3.862;2022-12-31T03:44:59;1.13;;;0.60;;
10550;SDS011;5324;50.684;3.862;2022-12-31T03:47:25;1.90;;;0.80;;
10550;SDS011;5324;50.684;3.862;2022-12-31T03:49:51;0.77;;;0.63;;
10550;SDS011;5324;50.684;3.862;2022-12-31T03:52:17;1.43;;;0.70;;
10550;SDS011;5324;50.684;3.862;2022-12-31T03:54:43;0.43;;;0.43;;
10550;SDS011;5324;50.684;3.862;2022-12-31T03:57:09;0.97;;;0.70;;
10550;SDS011;5324;50.684;3.862;2022-12-31T03:59:35;3.43;;;1.00;;
10550;SDS011;5324;50.684;3.862;2022-12-31T04:02:01;0.60;;;0.60;;
10550;SDS011;5324;50.684;3.862;2022-12-31T04:04:27;2.10;;;0.87;;
10550;SDS011;5324;50.684;3.862;2022-12-31T04:06:53;2.33;;;0.90;;
10550;SDS011;5324;50.684;3.862;2022-12-31T04:09:19;1.83;;;0.90;;
10550;SDS011;5324;50.684;3.862;2022-12-31T04:11:45;1.20;;;1.00;;
10550;SDS011;5324;50.684;3.862;2022-12-31T04:14:11;2.07;;;0.73;;
10550;SDS011;5324;50.684;3.862;2022-12-31T04:16:41;1.10;;;0.60;;
10550;SDS011;5324;50.684;3.862;2022-12-31T04:19:07;1.90;;;0.80;;
10550;SDS011;5324;50.684;3.862;2022-12-31T04:21:33;1.67;;;0.70;;
10550;SDS011;5324;50.684;3.862;2022-12-31T04:23:59;0.80;;;0.57;;
10550;SDS011;5324;50.684;3.862;2022-12-31T04:26:25;2.00;;;1.00;;
10550;SDS011;5324;50.684;3.862;2022-12-31T04:28:51;1.87;;;0.80;;
10550;SDS011;5324;50.684;3.862;2022-12-31T04:31:17;1.00;;;0.70;;
10550;SDS011;5324;50.684;3.862;2022-12-31T04:33:43;0.93;;;0.80;;
10550;SDS011;5324;50.684;3.862;2022-12-31T04:36:09;1.67;;;0.53;;
10550;SDS011;5324;50.684;3.862;2022-12-31T04:38:35;0.83;;;0.50;;
10550;SDS011;5324;50.684;3.862;2022-12-31T04:41:02;0.70;;;0.70;;
10550;SDS011;5324;50.684;3.862;2022-12-31T04:43:49;1.60;;;0.70;;
10550;SDS011;5324;50.684;3.862;2022-12-31T04:46:17;3.87;;;0.93;;
10550;SDS011;5324;50.684;3.862;2022-12-31T04:48:43;0.90;;;0.80;;
10550;SDS011;5324;50.684;3.862;2022-12-31T04:51:09;1.23;;;0.93;;
10550;SDS011;5324;50.684;3.862;2022-12-31T04:53:35;2.73;;;0.80;;
10550;SDS011;5324;50.684;3.862;2022-12-31T04:56:01;2.27;;;0.67;;
10550;SDS011;5324;50.684;3.862;2022-12-31T04:58:27;1.03;;;0.73;;
10550;SDS011;5324;50.684;3.862;2022-12-31T05:00:53;0.87;;;0.60;;
10550;SDS011;5324;50.684;3.862;2022-12-31T05:03:20;1.40;;;0.50;;
10550;SDS011;5324;50.684;3.862;2022-12-31T05:05:46;0.93;;;0.50;;
10550;SDS011;5324;50.684;3.862;2022-12-31T05:08:14;1.33;;;0.60;;
10550;SDS011;5324;50.684;3.862;2022-12-31T05:10:41;4.33;;;0.60;;
10550;SDS011;5324;50.684;3.862;2022-12-31T05:13:07;0.83;;;0.67;;
10550;SDS011;5324;50.684;3.862;2022-12-31T05:15:34;2.23;;;1.00;;
10550;SDS011;5324;50.684;3.862;2022-12-31T05:18:00;1.93;;;1.10;;
10550;SDS011;5324;50.684;3.862;2022-12-31T05:20:25;1.10;;;0.70;;
10550;SDS011;5324;50.684;3.862;2022-12-31T05:22:51;1.63;;;0.73;;
10550;SDS011;5324;50.684;3.862;2022-12-31T05:25:17;1.97;;;1.13;;
10550;SDS011;5324;50.684;3.862;2022-12-31T05:27:43;0.80;;;0.80;;
10550;SDS011;5324;50.684;3.862;2022-12-31T05:30:10;1.77;;;0.83;;
10550;SDS011;5324;50.684;3.862;2022-12-31T05:32:36;3.93;;;0.97;;
10550;SDS011;5324;50.684;3.862;2022-12-31T05:35:03;2.10;;;0.80;;
10550;SDS011;5324;50.684;3.862;2022-12-31T05:37:29;1.63;;;0.83;;
10550;SDS011;5324;50.684;3.862;2022-12-31T05:39:55;3.57;;;0.60;;
10550;SDS011;5324;50.684;3.862;2022-12-31T05:42:21;2.43;;;0.83;;
10550;SDS011;5324;50.684;3.862;2022-12-31T05:44:48;2.50;;;0.70;;
10550;SDS011;5324;50.684;3.862;2022-12-31T05:47:14;1.70;;;0.70;;
10550;SDS011;5324;50.684;3.862;2022-12-31T05:49:40;2.90;;;0.93;;
10550;SDS011;5324;50.684;3.862;2022-12-31T05:52:06;2.70;;;0.77;;
10550;SDS011;5324;50.684;3.862;2022-12-31T05:54:32;1.47;;;0.80;;
10550;SDS011;5324;50.684;3.862;2022-12-31T05:56:58;2.87;;;1.00;;
10550;SDS011;5324;50.684;3.862;2022-12-31T05:59:24;3.07;;;1.20;;
10550;SDS011;5324;50.684;3.862;2022-12-31T06:01:50;3.97;;;1.10;;
10550;SDS011;5324;50.684;3.862;2022-12-31T06:04:16;2.70;;;1.00;;
10550;SDS011;5324;50.684;3.862;2022-12-31T06:06:42;1.97;;;1.10;;
10550;SDS011;5324;50.684;3.862;2022-12-31T06:09:08;2.03;;;1.10;;
10550;SDS011;5324;50.684;3.862;2022-12-31T06:11:34;0.90;;;0.73;;
10550;SDS011;5324;50.684;3.862;2022-12-31T06:14:01;2.63;;;1.10;;
10550;SDS011;5324;50.684;3.862;2022-12-31T06:16:27;2.67;;;1.13;;
10550;SDS011;5324;50.684;3.862;2022-12-31T06:18:53;3.90;;;0.90;;
10550;SDS011;5324;50.684;3.862;2022-12-31T06:21:19;3.80;;;1.30;;
10550;SDS011;5324;50.684;3.862;2022-12-31T06:23:46;2.40;;;0.97;;
10550;SDS011;5324;50.684;3.862;2022-12-31T06:26:12;2.00;;;0.80;;
10550;SDS011;5324;50.684;3.862;2022-12-31T06:28:38;3.03;;;0.90;;
10550;SDS011;5324;50.684;3.862;2022-12-31T06:31:05;5.10;;;1.20;;
10550;SDS011;5324;50.684;3.862;2022-12-31T06:33:31;2.37;;;1.10;;
10550;SDS011;5324;50.684;3.862;2022-12-31T06:35:58;3.00;;;1.20;;
10550;SDS011;5324;50.684;3.862;2022-12-31T06:38:25;3.00;;;1.23;;
10550;SDS011;5324;50.684;3.862;2022-12-31T06:40:51;3.03;;;1.07;;
10550;SDS011;5324;50.684;3.862;2022-12-31T06:43:17;1.37;;;1.17;;
10550;SDS011;5324;50.684;3.862;2022-12-31T06:45:44;3.93;;;1.10;;
10550;SDS011;5324;50.684;3.862;2022-12-31T06:48:10;1.77;;;1.20;;
10550;SDS011;5324;50.684;3.862;2022-12-31T06:50:36;2.77;;;0.87;;
10550;SDS011;5324;50.684;3.862;2022-12-31T06:53:02;1.90;;;0.90;;
10550;SDS011;5324;50.684;3.862;2022-12-31T06:55:28;2.20;;;1.07;;
10550;SDS011;5324;50.684;3.862;2022-12-31T06:57:55;1.60;;;0.90;;
10550;SDS011;5324;50.684;3.862;2022-12-31T07:00:21;4.03;;;1.10;;
10550;SDS011;5324;50.684;3.862;2022-12-31T07:05:20;2.97;;;1.27;;
10550;SDS011;5324;50.684;3.862;2022-12-31T07:07:56;3.63;;;0.90;;
10550;SDS011;5324;50.684;3.862;2022-12-31T07:10:31;2.27;;;1.00;;
10550;SDS011;5324;50.684;3.862;2022-12-31T07:20:51;1.97;;;0.97;;
10550;SDS011;5324;50.684;3.862;2022-12-31T07:23:17;2.30;;;0.97;;
10550;SDS011;5324;50.684;3.862;2022-12-31T07:25:47;3.23;;;0.93;;
10550;SDS011;5324;50.684;3.862;2022-12-31T07:33:15;1.57;;;1.00;;
10550;SDS011;5324;50.684;3.862;2022-12-31T07:38:14;1.40;;;1.03;;
10550;SDS011;5324;50.684;3.862;2022-12-31T07:48:37;2.13;;;0.90;;
10550;SDS011;5324;50.684;3.862;2022-12-31T07:51:03;3.50;;;1.37;;
10550;SDS011;5324;50.684;3.862;2022-12-31T07:53:29;1.10;;;1.00;;
10550;SDS011;5324;50.684;3.862;2022-12-31T07:55:56;1.97;;;0.97;;
10550;SDS011;5324;50.684;3.862;2022-12-31T08:00:52;2.37;;;1.20;;
10550;SDS011;5324;50.684;3.862;2022-12-31T08:03:41;3.07;;;1.10;;
10550;SDS011;5324;50.684;3.862;2022-12-31T08:06:10;3.60;;;1.23;;
10550;SDS011;5324;50.684;3.862;2022-12-31T08:13:55;2.20;;;1.30;;
10550;SDS011;5324;50.684;3.862;2022-12-31T08:16:21;2.17;;;1.07;;
10550;SDS011;5324;50.684;3.862;2022-12-31T08:18:47;3.57;;;1.20;;
10550;SDS011;5324;50.684;3.862;2022-12-31T08:21:35;4.83;;;1.20;;
10550;SDS011;5324;50.684;3.862;2022-12-31T08:24:11;2.80;;;1.27;;
10550;SDS011;5324;50.684;3.862;2022-12-31T08:29:19;2.10;;;1.17;;
10550;SDS011;5324;50.684;3.862;2022-12-31T08:31:51;2.97;;;1.40;;
10550;SDS011;5324;50.684;3.862;2022-12-31T08:36:52;3.60;;;1.20;;
10550;SDS011;5324;50.684;3.862;2022-12-31T08:39:24;2.13;;;1.10;;
10550;SDS011;5324;50.684;3.862;2022-12-31T08:41:53;3.63;;;1.03;;
10550;SDS011;5324;50.684;3.862;2022-12-31T08:44:23;1.87;;;1.17;;
10550;SDS011;5324;50.684;3.862;2022-12-31T08:49:25;3.63;;;1.63;;
10550;SDS011;5324;50.684;3.862;2022-12-31T08:51:52;4.27;;;1.33;;
10550;SDS011;5324;50.684;3.862;2022-12-31T08:54:18;1.80;;;1.10;;
10550;SDS011;5324;50.684;3.862;2022-12-31T08:56:52;2.83;;;1.00;;
10550;SDS011;5324;50.684;3.862;2022-12-31T09:07:15;6.43;;;1.43;;
10550;SDS011;5324;50.684;3.862;2022-12-31T09:09:49;2.13;;;1.00;;
10550;SDS011;5324;50.684;3.862;2022-12-31T09:12:30;3.93;;;1.60;;
10550;SDS011;5324;50.684;3.862;2022-12-31T09:15:05;3.83;;;1.10;;
10550;SDS011;5324;50.684;3.862;2022-12-31T09:17:45;1.80;;;1.20;;
10550;SDS011;5324;50.684;3.862;2022-12-31T09:20:13;8.37;;;1.70;;
10550;SDS011;5324;50.684;3.862;2022-12-31T09:22:40;3.03;;;1.13;;
10550;SDS011;5324;50.684;3.862;2022-12-31T09:25:06;4.17;;;1.20;;
10550;SDS011;5324;50.684;3.862;2022-12-31T09:27:36;6.60;;;1.40;;
10550;SDS011;5324;50.684;3.862;2022-12-31T09:30:04;2.93;;;1.57;;
10550;SDS011;5324;50.684;3.862;2022-12-31T09:37:45;3.97;;;1.50;;
10550;SDS011;5324;50.684;3.862;2022-12-31T09:45:24;2.43;;;1.37;;
10550;SDS011;5324;50.684;3.862;2022-12-31T09:53:03;6.87;;;1.53;;
10550;SDS011;5324;50.684;3.862;2022-12-31T10:00:38;3.13;;;1.40;;
10550;SDS011;5324;50.684;3.862;2022-12-31T10:29:46;2.97;;;1.07;;
10550;SDS011;5324;50.684;3.862;2022-12-31T10:32:20;5.07;;;1.40;;
10550;SDS011;5324;50.684;3.862;2022-12-31T10:37:41;6.13;;;1.67;;
10550;SDS011;5324;50.684;3.862;2022-12-31T10:53:01;4.97;;;1.50;;
10550;SDS011;5324;50.684;3.862;2022-12-31T11:00:37;6.30;;;1.70;;
10550;SDS011;5324;50.684;3.862;2022-12-31T11:03:16;4.07;;;1.40;;
10550;SDS011;5324;50.684;3.862;2022-12-31T11:05:59;2.93;;;1.43;;
10550;SDS011;5324;50.684;3.862;2022-12-31T11:08:42;5.83;;;1.93;;
10550;SDS011;5324;50.684;3.862;2022-12-31T11:11:23;3.20;;;1.77;;
10550;SDS011;5324;50.684;3.862;2022-12-31T11:13:57;5.47;;;2.50;;
10550;SDS011;5324;50.684;3.862;2022-12-31T11:16:30;3.33;;;1.57;;
10550;SDS011;5324;50.684;3.862;2022-12-31T11:36:40;4.00;;;1.60;;
10550;SDS011;5324;50.684;3.862;2022-12-31T11:41:40;4.50;;;1.52;;
10550;SDS011;5324;50.684;3.862;2022-12-31T11:59:33;5.83;;;2.37;;
10550;SDS011;5324;50.684;3.862;2022-12-31T12:02:00;8.67;;;2.43;;
10550;SDS011;5324;50.684;3.862;2022-12-31T12:04:29;5.85;;;2.20;;
10550;SDS011;5324;50.684;3.862;2022-12-31T12:06:55;6.30;;;2.63;;
10550;SDS011;5324;50.684;3.862;2022-12-31T12:09:28;6.30;;;2.20;;
10550;SDS011;5324;50.684;3.862;2022-12-31T12:12:02;11.53;;;3.40;;
10550;SDS011;5324;50.684;3.862;2022-12-31T12:14:33;6.03;;;2.00;;
10550;SDS011;5324;50.684;3.862;2022-12-31T12:17:00;4.53;;;3.22;;
10550;SDS011;5324;50.684;3.862;2022-12-31T12:19:30;4.43;;;1.83;;
10550;SDS011;5324;50.684;3.862;2022-12-31T12:21:56;5.37;;;2.00;;
10550;SDS011;5324;50.684;3.862;2022-12-31T12:24:26;4.03;;;1.93;;
10550;SDS011;5324;50.684;3.862;2022-12-31T12:26:53;3.70;;;1.80;;
10550;SDS011;5324;50.684;3.862;2022-12-31T12:29:25;3.80;;;1.67;;
10550;SDS011;5324;50.684;3.862;2022-12-31T12:32:06;5.00;;;2.07;;
10550;SDS011;5324;50.684;3.862;2022-12-31T12:34:36;5.70;;;1.87;;
10550;SDS011;5324;50.684;3.862;2022-12-31T12:37:03;2.63;;;1.70;;
10550;SDS011;5324;50.684;3.862;2022-12-31T12:39:31;7.32;;;2.30;;
10550;SDS011;5324;50.684;3.862;2022-12-31T12:42:06;4.53;;;1.77;;
10550;SDS011;5324;50.684;3.862;2022-12-31T12:44:32;6.47;;;2.23;;
10550;SDS011;5324;50.684;3.862;2022-12-31T12:47:00;3.57;;;1.60;;
10550;SDS011;5324;50.684;3.862;2022-12-31T12:49:28;4.97;;;1.80;;
10550;SDS011;5324;50.684;3.862;2022-12-31T12:57:07;3.30;;;1.70;;
10550;SDS011;5324;50.684;3.862;2022-12-31T13:10:18;5.47;;;2.10;;
10550;SDS011;5324;50.684;3.862;2022-12-31T13:12:47;4.43;;;1.93;;
10550;SDS011;5324;50.684;3.862;2022-12-31T13:17:48;4.77;;;1.80;;
10550;SDS011;5324;50.684;3.862;2022-12-31T13:20:27;5.40;;;2.70;;
10550;SDS011;5324;50.684;3.862;2022-12-31T13:28:20;7.80;;;2.33;;
10550;SDS011;5324;50.684;3.862;2022-12-31T13:30:48;5.60;;;2.40;;
10550;SDS011;5324;50.684;3.862;2022-12-31T13:33:15;7.23;;;2.50;;
10550;SDS011;5324;50.684;3.862;2022-12-31T13:36:02;8.20;;;3.10;;
10550;SDS011;5324;50.684;3.862;2022-12-31T13:38:31;3.77;;;1.80;;
10550;SDS011;5324;50.684;3.862;2022-12-31T13:51:47;6.10;;;2.63;;
10550;SDS011;5324;50.684;3.862;2022-12-31T13:56:49;4.53;;;2.23;;
10550;SDS011;5324;50.684;3.862;2022-12-31T13:59:25;5.57;;;2.17;;
10550;SDS011;5324;50.684;3.862;2022-12-31T14:04:42;2.90;;;2.10;;
10550;SDS011;5324;50.684;3.862;2022-12-31T14:07:14;3.97;;;1.90;;
10550;SDS011;5324;50.684;3.862;2022-12-31T14:09:41;3.80;;;2.00;;
10550;SDS011;5324;50.684;3.862;2022-12-31T14:17:40;3.03;;;1.50;;
10550;SDS011;5324;50.684;3.862;2022-12-31T14:20:14;4.87;;;1.90;;
10550;SDS011;5324;50.684;3.862;2022-12-31T14:25:35;4.57;;;2.00;;
10550;SDS011;5324;50.684;3.862;2022-12-31T14:28:02;3.53;;;1.90;;
10550;SDS011;5324;50.684;3.862;2022-12-31T14:30:30;3.13;;;1.87;;
10550;SDS011;5324;50.684;3.862;2022-12-31T14:33:07;2.47;;;1.83;;
10550;SDS011;5324;50.684;3.862;2022-12-31T14:40:51;3.93;;;2.33;;
10550;SDS011;5324;50.684;3.862;2022-12-31T14:46:09;3.43;;;1.97;;
10550;SDS011;5324;50.684;3.862;2022-12-31T14:51:13;4.87;;;2.40;;
10550;SDS011;5324;50.684;3.862;2022-12-31T14:53:39;5.63;;;1.87;;
10550;SDS011;5324;50.684;3.862;2022-12-31T14:56:36;4.87;;;2.37;;
10550;SDS011;5324;50.684;3.862;2022-12-31T15:01:49;3.50;;;2.00;;
10550;SDS011;5324;50.684;3.862;2022-12-31T15:04:15;3.30;;;1.60;;
10550;SDS011;5324;50.684;3.862;2022-12-31T15:06:53;4.60;;;2.00;;
10550;SDS011;5324;50.684;3.862;2022-12-31T15:09:30;2.63;;;1.77;;
10550;SDS011;5324;50.684;3.862;2022-12-31T15:15:32;3.33;;;1.70;;
10550;SDS011;5324;50.684;3.862;2022-12-31T15:17:42;4.80;;;1.90;;
10550;SDS011;5324;50.684;3.862;2022-12-31T15:25:19;3.73;;;1.83;;
10550;SDS011;5324;50.684;3.862;2022-12-31T15:27:46;3.77;;;1.80;;
10550;SDS011;5324;50.684;3.862;2022-12-31T15:35:47;3.33;;;1.63;;
10550;SDS011;5324;50.684;3.862;2022-12-31T15:40:46;4.40;;;2.10;;
10550;SDS011;5324;50.684;3.862;2022-12-31T15:43:15;4.20;;;2.00;;
10550;SDS011;5324;50.684;3.862;2022-12-31T15:45:41;5.47;;;1.90;;
10550;SDS011;5324;50.684;3.862;2022-12-31T15:48:12;4.63;;;1.90;;
10550;SDS011;5324;50.684;3.862;2022-12-31T15:50:39;3.23;;;2.03;;
10550;SDS011;5324;50.684;3.862;2022-12-31T15:53:06;3.43;;;1.93;;
10550;SDS011;5324;50.684;3.862;2022-12-31T15:58:20;2.30;;;2.00;;
10550;SDS011;5324;50.684;3.862;2022-12-31T16:03:29;2.97;;;2.00;;
10550;SDS011;5324;50.684;3.862;2022-12-31T16:06:00;3.83;;;1.77;;
10550;SDS011;5324;50.684;3.862;2022-12-31T16:08:30;4.43;;;1.77;;
10550;SDS011;5324;50.684;3.862;2022-12-31T16:10:58;3.33;;;1.90;;
10550;SDS011;5324;50.684;3.862;2022-12-31T16:13:24;3.17;;;2.27;;
10550;SDS011;5324;50.684;3.862;2022-12-31T16:16:01;3.83;;;1.70;;
10550;SDS011;5324;50.684;3.862;2022-12-31T16:18:41;5.00;;;1.93;;
10550;SDS011;5324;50.684;3.862;2022-12-31T16:23:54;5.07;;;2.17;;
10550;SDS011;5324;50.684;3.862;2022-12-31T16:26:27;5.40;;;2.47;;
10550;SDS011;5324;50.684;3.862;2022-12-31T16:28:57;2.97;;;1.87;;
10550;SDS011;5324;50.684;3.862;2022-12-31T16:31:24;4.77;;;2.10;;
10550;SDS011;5324;50.684;3.862;2022-12-31T16:34:00;3.93;;;2.03;;
10550;SDS011;5324;50.684;3.862;2022-12-31T16:36:27;4.07;;;2.67;;
10550;SDS011;5324;50.684;3.862;2022-12-31T16:39:01;4.70;;;2.20;;
10550;SDS011;5324;50.684;3.862;2022-12-31T16:41:41;6.43;;;2.20;;
10550;SDS011;5324;50.684;3.862;2022-12-31T16:44:11;3.33;;;2.00;;
10550;SDS011;5324;50.684;3.862;2022-12-31T16:46:48;7.77;;;2.63;;
10550;SDS011;5324;50.684;3.862;2022-12-31T16:49:17;5.53;;;2.17;;
10550;SDS011;5324;50.684;3.862;2022-12-31T16:51:45;3.80;;;2.43;;
10550;SDS011;5324;50.684;3.862;2022-12-31T16:54:28;3.90;;;2.37;;
10550;SDS011;5324;50.684;3.862;2022-12-31T16:56:55;4.97;;;2.60;;
10550;SDS011;5324;50.684;3.862;2022-12-31T16:59:26;7.03;;;2.57;;
10550;SDS011;5324;50.684;3.862;2022-12-31T17:01:54;4.53;;;2.43;;
10550;SDS011;5324;50.684;3.862;2022-12-31T17:04:21;3.90;;;2.00;;
10550;SDS011;5324;50.684;3.862;2022-12-31T17:06:48;4.87;;;2.17;;
10550;SDS011;5324;50.684;3.862;2022-12-31T17:09:15;8.43;;;2.30;;
10550;SDS011;5324;50.684;3.862;2022-12-31T17:14:18;4.77;;;2.17;;
10550;SDS011;5324;50.684;3.862;2022-12-31T17:19:25;4.73;;;2.63;;
10550;SDS011;5324;50.684;3.862;2022-12-31T17:21:56;5.87;;;2.13;;
10550;SDS011;5324;50.684;3.862;2022-12-31T17:24:22;4.93;;;2.20;;
10550;SDS011;5324;50.684;3.862;2022-12-31T17:26:48;5.10;;;2.33;;
10550;SDS011;5324;50.684;3.862;2022-12-31T17:29:19;2.17;;;1.77;;
10550;SDS011;5324;50.684;3.862;2022-12-31T17:32:02;8.27;;;2.20;;
10550;SDS011;5324;50.684;3.862;2022-12-31T17:34:37;3.60;;;1.90;;
10550;SDS011;5324;50.684;3.862;2022-12-31T17:39:46;4.47;;;1.73;;
10550;SDS011;5324;50.684;3.862;2022-12-31T17:42:13;8.27;;;2.43;;
10550;SDS011;5324;50.684;3.862;2022-12-31T17:44:41;4.13;;;1.77;;
10550;SDS011;5324;50.684;3.862;2022-12-31T17:47:11;6.30;;;2.10;;
10550;SDS011;5324;50.684;3.862;2022-12-31T17:49:42;3.63;;;1.93;;
10550;SDS011;5324;50.684;3.862;2022-12-31T17:52:13;8.40;;;2.07;;
10550;SDS011;5324;50.684;3.862;2022-12-31T17:54:39;7.43;;;3.13;;
10550;SDS011;5324;50.684;3.862;2022-12-31T17:57:05;5.20;;;2.20;;
10550;SDS011;5324;50.684;3.862;2022-12-31T17:59:32;4.37;;;1.70;;
10550;SDS011;5324;50.684;3.862;2022-12-31T18:01:59;8.70;;;2.63;;
10550;SDS011;5324;50.684;3.862;2022-12-31T18:04:26;3.60;;;1.90;;
10550;SDS011;5324;50.684;3.862;2022-12-31T18:06:52;6.47;;;1.90;;
10550;SDS011;5324;50.684;3.862;2022-12-31T18:09:18;5.07;;;2.03;;
10550;SDS011;5324;50.684;3.862;2022-12-31T18:11:44;3.50;;;1.73;;
10550;SDS011;5324;50.684;3.862;2022-12-31T18:14:14;5.17;;;1.70;;
10550;SDS011;5324;50.684;3.862;2022-12-31T18:16:40;6.30;;;2.63;;
10550;SDS011;5324;50.684;3.862;2022-12-31T18:19:09;6.57;;;2.00;;
10550;SDS011;5324;50.684;3.862;2022-12-31T18:21:37;9.63;;;2.47;;
10550;SDS011;5324;50.684;3.862;2022-12-31T18:24:03;5.00;;;2.30;;
10550;SDS011;5324;50.684;3.862;2022-12-31T18:26:29;4.93;;;1.70;;
10550;SDS011;5324;50.684;3.862;2022-12-31T18:29:00;5.73;;;1.80;;
10550;SDS011;5324;50.684;3.862;2022-12-31T18:31:27;5.07;;;1.80;;
10550;SDS011;5324;50.684;3.862;2022-12-31T18:33:55;6.87;;;2.10;;
10550;SDS011;5324;50.684;3.862;2022-12-31T18:36:22;5.37;;;2.07;;
10550;SDS011;5324;50.684;3.862;2022-12-31T18:38:48;10.50;;;2.40;;
10550;SDS011;5324;50.684;3.862;2022-12-31T18:41:22;3.93;;;2.03;;
10550;SDS011;5324;50.684;3.862;2022-12-31T18:43:51;4.67;;;1.90;;
10550;SDS011;5324;50.684;3.862;2022-12-31T18:46:18;3.87;;;1.80;;
10550;SDS011;5324;50.684;3.862;2022-12-31T18:48:44;7.80;;;2.10;;
10550;SDS011;5324;50.684;3.862;2022-12-31T18:51:14;3.63;;;1.73;;
10550;SDS011;5324;50.684;3.862;2022-12-31T18:53:40;3.00;;;1.80;;
10550;SDS011;5324;50.684;3.862;2022-12-31T18:56:25;2.70;;;2.17;;
10550;SDS011;5324;50.684;3.862;2022-12-31T18:58:51;4.67;;;2.03;;
10550;SDS011;5324;50.684;3.862;2022-12-31T19:01:25;4.73;;;1.90;;
10550;SDS011;5324;50.684;3.862;2022-12-31T19:03:52;5.90;;;2.17;;
10550;SDS011;5324;50.684;3.862;2022-12-31T19:06:18;7.30;;;2.50;;
10550;SDS011;5324;50.684;3.862;2022-12-31T19:08:44;3.43;;;1.87;;
10550;SDS011;5324;50.684;3.862;2022-12-31T19:11:11;4.17;;;1.57;;
10550;SDS011;5324;50.684;3.862;2022-12-31T19:13:38;5.90;;;2.03;;
10550;SDS011;5324;50.684;3.862;2022-12-31T19:16:04;5.33;;;2.17;;
10550;SDS011;5324;50.684;3.862;2022-12-31T19:18:31;5.23;;;2.00;;
10550;SDS011;5324;50.684;3.862;2022-12-31T19:20:57;5.67;;;2.00;;
10550;SDS011;5324;50.684;3.862;2022-12-31T19:23:23;4.70;;;2.10;;
10550;SDS011;5324;50.684;3.862;2022-12-31T19:25:49;3.90;;;2.07;;